DLH522 EHAM-EDDF
Flight info
| Callsign | DLH522 |
|---|---|
| Flight time | 0h 45m |
| Altitude | 33000 |
| Route | RENDI2N EDUPO Z739 MISGO DCT DIXAT DIXAT1D |
| Aircraft | B78X/H-SDE1E2E3FGHIJ2J3J4J5M1RWXY/LB1D1 |
Departure
| Time | 2026-05-07 19:14 |
|---|---|
| Airport | Amsterdam Airport Schiphol (EHAM) |
Arrival
| Time | 2026-05-07 19:59 |
|---|---|
| Airport | Frankfurt Main Airport (EDDF) |
| Time | Latitude | Longitude | Altitude | Speed | Heading |
|---|---|---|---|---|---|
| 2026-05-07 18:49 | 52.31222 | 4.75593 | 3 ft | 0 kts | 86° |
| 2026-05-07 19:01 | 52.31222 | 4.75589 | 4 ft | 2 kts | 87° |
| 2026-05-07 19:01 | 52.31221 | 4.75576 | 4 ft | 4 kts | 84° |
| 2026-05-07 19:01 | 52.31218 | 4.75542 | 5 ft | 4 kts | 68° |
| 2026-05-07 19:02 | 52.31210 | 4.75514 | 6 ft | 4 kts | 41° |
| 2026-05-07 19:02 | 52.31196 | 4.75497 | 4 ft | 4 kts | 12° |
| 2026-05-07 19:02 | 52.31191 | 4.75495 | 4 ft | 4 kts | 6° |
| 2026-05-07 19:02 | 52.31178 | 4.75493 | 4 ft | 4 kts | 358° |
| 2026-05-07 19:03 | 52.31165 | 4.75493 | 4 ft | 5 kts | 356° |
| 2026-05-07 19:06 | 52.31176 | 4.75492 | 4 ft | 4 kts | 356° |
| 2026-05-07 19:07 | 52.31211 | 4.75481 | 4 ft | 8 kts | 346° |
| 2026-05-07 19:07 | 52.31313 | 4.75451 | 4 ft | 21 kts | 356° |
| 2026-05-07 19:07 | 52.31464 | 4.75436 | 3 ft | 21 kts | 356° |
| 2026-05-07 19:07 | 52.31515 | 4.75364 | 3 ft | 5 kts | 280° |
| 2026-05-07 19:08 | 52.31509 | 4.75255 | 3 ft | 12 kts | 264° |
| 2026-05-07 19:08 | 52.31501 | 4.75115 | 3 ft | 13 kts | 266° |
| 2026-05-07 19:08 | 52.31495 | 4.74963 | 3 ft | 14 kts | 266° |
| 2026-05-07 19:08 | 52.31489 | 4.74792 | 4 ft | 18 kts | 266° |
| 2026-05-07 19:09 | 52.31483 | 4.74577 | 4 ft | 19 kts | 268° |
| 2026-05-07 19:09 | 52.31476 | 4.74353 | 4 ft | 20 kts | 267° |
| 2026-05-07 19:09 | 52.31423 | 4.74156 | 4 ft | 19 kts | 211° |
| 2026-05-07 19:09 | 52.31291 | 4.74126 | 4 ft | 20 kts | 183° |
| 2026-05-07 19:10 | 52.31153 | 4.74114 | 3 ft | 20 kts | 183° |
| 2026-05-07 19:10 | 52.31010 | 4.74102 | 3 ft | 21 kts | 183° |
| 2026-05-07 19:10 | 52.30863 | 4.74087 | 3 ft | 21 kts | 183° |
| 2026-05-07 19:10 | 52.30713 | 4.74074 | 3 ft | 22 kts | 183° |
| 2026-05-07 19:11 | 52.30560 | 4.74063 | 4 ft | 22 kts | 184° |
| 2026-05-07 19:11 | 52.30403 | 4.74049 | 4 ft | 23 kts | 183° |
| 2026-05-07 19:11 | 52.30257 | 4.73964 | 4 ft | 23 kts | 214° |
| 2026-05-07 19:11 | 52.30186 | 4.73778 | 3 ft | 15 kts | 284° |
| 2026-05-07 19:12 | 52.30234 | 4.73730 | 2 ft | 7 kts | 5° |
| 2026-05-07 19:12 | 52.30273 | 4.73740 | 1 ft | 0 kts | 4° |
| 2026-05-07 19:13 | 52.30278 | 4.73741 | 1 ft | 4 kts | 4° |
| 2026-05-07 19:13 | 52.30501 | 4.73761 | 2 ft | 74 kts | 3° |
| 2026-05-07 19:13 | 52.31310 | 4.73834 | 10 ft | 156 kts | 4° |
| 2026-05-07 19:13 | 52.32514 | 4.73951 | 495 ft | 190 kts | 8° |
| 2026-05-07 19:14 | 52.33819 | 4.74392 | 1548 ft | 190 kts | 22° |
| 2026-05-07 19:14 | 52.35164 | 4.75315 | 1896 ft | 230 kts | 23° |
| 2026-05-07 19:14 | 52.36667 | 4.76256 | 2828 ft | 236 kts | 21° |
| 2026-05-07 19:14 | 52.38135 | 4.77485 | 3711 ft | 241 kts | 43° |
| 2026-05-07 19:15 | 52.39327 | 4.79578 | 4584 ft | 261 kts | 46° |
| 2026-05-07 19:15 | 52.40632 | 4.81688 | 5721 ft | 268 kts | 45° |
| 2026-05-07 19:15 | 52.41875 | 4.84018 | 6837 ft | 274 kts | 64° |
| 2026-05-07 19:15 | 52.42370 | 4.87005 | 7967 ft | 276 kts | 88° |
| 2026-05-07 19:16 | 52.42381 | 4.89107 | 8705 ft | 280 kts | 91° |
| 2026-05-07 19:16 | 52.42391 | 4.92334 | 9843 ft | 286 kts | 90° |
| 2026-05-07 19:16 | 52.42386 | 4.95662 | 10517 ft | 308 kts | 94° |
| 2026-05-07 19:16 | 52.41676 | 4.99149 | 10685 ft | 343 kts | 124° |
| 2026-05-07 19:17 | 52.39947 | 5.01910 | 11461 ft | 353 kts | 143° |
| 2026-05-07 19:17 | 52.37910 | 5.04228 | 12447 ft | 360 kts | 148° |
| 2026-05-07 19:17 | 52.35794 | 5.06489 | 13461 ft | 367 kts | 147° |
| 2026-05-07 19:17 | 52.33709 | 5.08922 | 14414 ft | 373 kts | 142° |
| 2026-05-07 19:18 | 52.31879 | 5.12014 | 15328 ft | 379 kts | 132° |
| 2026-05-07 19:18 | 52.30141 | 5.15285 | 16251 ft | 384 kts | 131° |
| 2026-05-07 19:18 | 52.28361 | 5.18579 | 17180 ft | 389 kts | 133° |
| 2026-05-07 19:18 | 52.26529 | 5.21865 | 18090 ft | 394 kts | 133° |
| 2026-05-07 19:19 | 52.24683 | 5.25194 | 18895 ft | 399 kts | 131° |
| 2026-05-07 19:19 | 52.23042 | 5.28882 | 19630 ft | 404 kts | 125° |
| 2026-05-07 19:19 | 52.21417 | 5.32645 | 20376 ft | 408 kts | 126° |
| 2026-05-07 19:19 | 52.19754 | 5.36430 | 21122 ft | 413 kts | 127° |
| 2026-05-07 19:20 | 52.18083 | 5.40257 | 21821 ft | 418 kts | 126° |
| 2026-05-07 19:20 | 52.16395 | 5.44153 | 22532 ft | 422 kts | 126° |
| 2026-05-07 19:20 | 52.14689 | 5.48075 | 23191 ft | 427 kts | 127° |
| 2026-05-07 19:20 | 52.12959 | 5.52027 | 23825 ft | 431 kts | 127° |
| 2026-05-07 19:21 | 52.11211 | 5.56015 | 24363 ft | 435 kts | 127° |
| 2026-05-07 19:21 | 52.09446 | 5.60047 | 24893 ft | 439 kts | 127° |
| 2026-05-07 19:21 | 52.07667 | 5.64104 | 25442 ft | 442 kts | 127° |
| 2026-05-07 19:21 | 52.05839 | 5.68147 | 25964 ft | 444 kts | 131° |
| 2026-05-07 19:22 | 52.03806 | 5.71941 | 26456 ft | 448 kts | 133° |
| 2026-05-07 19:22 | 52.01749 | 5.75767 | 26972 ft | 451 kts | 133° |
| 2026-05-07 19:22 | 51.99690 | 5.79608 | 27482 ft | 454 kts | 133° |
| 2026-05-07 19:22 | 51.97611 | 5.83487 | 27954 ft | 457 kts | 133° |
| 2026-05-07 19:23 | 51.95515 | 5.87391 | 28437 ft | 460 kts | 133° |
| 2026-05-07 19:23 | 51.93408 | 5.91332 | 28912 ft | 463 kts | 133° |
| 2026-05-07 19:23 | 51.91326 | 5.95221 | 29507 ft | 463 kts | 133° |
| 2026-05-07 19:23 | 51.89187 | 5.99200 | 30223 ft | 461 kts | 133° |
| 2026-05-07 19:24 | 51.87119 | 6.03038 | 30785 ft | 459 kts | 133° |
| 2026-05-07 19:24 | 51.84990 | 6.06987 | 31369 ft | 457 kts | 133° |
| 2026-05-07 19:24 | 51.82908 | 6.10823 | 31930 ft | 456 kts | 133° |
| 2026-05-07 19:24 | 51.80805 | 6.14671 | 32488 ft | 454 kts | 133° |
| 2026-05-07 19:25 | 51.78746 | 6.18439 | 32983 ft | 455 kts | 133° |
| 2026-05-07 19:25 | 51.76643 | 6.22295 | 33057 ft | 458 kts | 133° |
| 2026-05-07 19:25 | 51.72469 | 6.29915 | 33086 ft | 454 kts | 133° |
| 2026-05-07 19:26 | 51.68294 | 6.37509 | 33063 ft | 452 kts | 133° |
| 2026-05-07 19:26 | 51.64111 | 6.45098 | 33075 ft | 452 kts | 133° |
| 2026-05-07 19:27 | 51.62030 | 6.48863 | 32850 ft | 451 kts | 133° |
| 2026-05-07 19:27 | 51.59939 | 6.52647 | 32500 ft | 452 kts | 133° |
| 2026-05-07 19:27 | 51.57955 | 6.56231 | 32150 ft | 453 kts | 133° |
| 2026-05-07 19:27 | 51.55842 | 6.60041 | 31787 ft | 455 kts | 133° |
| 2026-05-07 19:28 | 51.53733 | 6.63836 | 31428 ft | 456 kts | 133° |
| 2026-05-07 19:28 | 51.51616 | 6.67644 | 31065 ft | 457 kts | 133° |
| 2026-05-07 19:28 | 51.49501 | 6.71440 | 30702 ft | 458 kts | 133° |
| 2026-05-07 19:28 | 51.47365 | 6.75267 | 30329 ft | 459 kts | 133° |
| 2026-05-07 19:29 | 51.45232 | 6.79086 | 29927 ft | 460 kts | 133° |
| 2026-05-07 19:29 | 51.43098 | 6.82897 | 29486 ft | 461 kts | 133° |
| 2026-05-07 19:29 | 51.40945 | 6.86739 | 29021 ft | 462 kts | 133° |
| 2026-05-07 19:29 | 51.38916 | 6.90749 | 28524 ft | 464 kts | 129° |
| 2026-05-07 19:30 | 51.36905 | 6.94796 | 28041 ft | 466 kts | 130° |
| 2026-05-07 19:30 | 51.34884 | 6.98817 | 27569 ft | 467 kts | 130° |
| 2026-05-07 19:30 | 51.32853 | 7.02884 | 27140 ft | 467 kts | 130° |
| 2026-05-07 19:30 | 51.30839 | 7.06943 | 27086 ft | 467 kts | 130° |
| 2026-05-07 19:31 | 51.28802 | 7.11011 | 27094 ft | 469 kts | 131° |
| 2026-05-07 19:31 | 51.26479 | 7.14658 | 27091 ft | 467 kts | 143° |
| 2026-05-07 19:31 | 51.23756 | 7.17449 | 27095 ft | 464 kts | 154° |
| 2026-05-07 19:31 | 51.20887 | 7.19753 | 27090 ft | 464 kts | 155° |
| 2026-05-07 19:32 | 51.17971 | 7.22059 | 27088 ft | 465 kts | 155° |
| 2026-05-07 19:32 | 51.15074 | 7.24334 | 27096 ft | 465 kts | 155° |
| 2026-05-07 19:32 | 51.12183 | 7.26622 | 27062 ft | 464 kts | 155° |
| 2026-05-07 19:32 | 51.09314 | 7.29039 | 26249 ft | 467 kts | 154° |
| 2026-05-07 19:33 | 51.06437 | 7.31385 | 25444 ft | 464 kts | 154° |
| 2026-05-07 19:33 | 51.03555 | 7.33700 | 24640 ft | 463 kts | 154° |
| 2026-05-07 19:33 | 51.00705 | 7.36052 | 23825 ft | 461 kts | 154° |
| 2026-05-07 19:33 | 50.97878 | 7.38413 | 22982 ft | 457 kts | 154° |
| 2026-05-07 19:34 | 50.95067 | 7.40728 | 22195 ft | 452 kts | 154° |
| 2026-05-07 19:34 | 50.92286 | 7.42991 | 21411 ft | 447 kts | 154° |
| 2026-05-07 19:34 | 50.89545 | 7.45233 | 20644 ft | 443 kts | 154° |
| 2026-05-07 19:34 | 50.86819 | 7.47472 | 19872 ft | 438 kts | 154° |
| 2026-05-07 19:35 | 50.84139 | 7.49667 | 19343 ft | 429 kts | 154° |
| 2026-05-07 19:35 | 50.81518 | 7.51803 | 18934 ft | 418 kts | 154° |
| 2026-05-07 19:35 | 50.79000 | 7.53855 | 18923 ft | 398 kts | 154° |
| 2026-05-07 19:35 | 50.76578 | 7.55827 | 18914 ft | 388 kts | 154° |
| 2026-05-07 19:36 | 50.74177 | 7.57778 | 18907 ft | 391 kts | 154° |
| 2026-05-07 19:36 | 50.71654 | 7.59822 | 17836 ft | 429 kts | 154° |
| 2026-05-07 19:36 | 50.68929 | 7.62033 | 16935 ft | 441 kts | 154° |
| 2026-05-07 19:36 | 50.66267 | 7.64199 | 16578 ft | 424 kts | 154° |
| 2026-05-07 19:37 | 50.63681 | 7.66294 | 16174 ft | 410 kts | 154° |
| 2026-05-07 19:37 | 50.61181 | 7.68309 | 15788 ft | 397 kts | 154° |
| 2026-05-07 19:37 | 50.58742 | 7.70276 | 15407 ft | 393 kts | 154° |
| 2026-05-07 19:37 | 50.56314 | 7.72234 | 15041 ft | 391 kts | 154° |
| 2026-05-07 19:38 | 50.53903 | 7.74175 | 14675 ft | 389 kts | 154° |
| 2026-05-07 19:38 | 50.51496 | 7.76110 | 14300 ft | 387 kts | 154° |
| 2026-05-07 19:38 | 50.49109 | 7.78027 | 13943 ft | 385 kts | 154° |
| 2026-05-07 19:38 | 50.46723 | 7.79940 | 13553 ft | 383 kts | 154° |
| 2026-05-07 19:39 | 50.44360 | 7.81836 | 13175 ft | 381 kts | 153° |
| 2026-05-07 19:39 | 50.42168 | 7.84142 | 12821 ft | 380 kts | 142° |
| 2026-05-07 19:39 | 50.40105 | 7.86717 | 12459 ft | 379 kts | 142° |
| 2026-05-07 19:39 | 50.38076 | 7.89277 | 12452 ft | 376 kts | 142° |
| 2026-05-07 19:40 | 50.36018 | 7.91831 | 12452 ft | 376 kts | 142° |
| 2026-05-07 19:40 | 50.33941 | 7.94385 | 12457 ft | 381 kts | 142° |
| 2026-05-07 19:40 | 50.31875 | 7.96936 | 12455 ft | 379 kts | 142° |
| 2026-05-07 19:40 | 50.29805 | 7.99501 | 12459 ft | 378 kts | 142° |
| 2026-05-07 19:41 | 50.27767 | 8.02121 | 12458 ft | 380 kts | 136° |
| 2026-05-07 19:41 | 50.26241 | 8.05484 | 12458 ft | 381 kts | 115° |
| 2026-05-07 19:41 | 50.25431 | 8.09416 | 12467 ft | 382 kts | 105° |
| 2026-05-07 19:41 | 50.24843 | 8.13046 | 12471 ft | 382 kts | 104° |
| 2026-05-07 19:42 | 50.24222 | 8.17087 | 12471 ft | 382 kts | 104° |
| 2026-05-07 19:42 | 50.23579 | 8.21119 | 12475 ft | 383 kts | 104° |
| 2026-05-07 19:42 | 50.22916 | 8.25135 | 12474 ft | 383 kts | 104° |
| 2026-05-07 19:42 | 50.22254 | 8.29178 | 12477 ft | 383 kts | 104° |
| 2026-05-07 19:43 | 50.21603 | 8.33200 | 12472 ft | 382 kts | 105° |
| 2026-05-07 19:43 | 50.20610 | 8.37002 | 12366 ft | 383 kts | 122° |
| 2026-05-07 19:43 | 50.18885 | 8.40020 | 12174 ft | 378 kts | 142° |
| 2026-05-07 19:43 | 50.16556 | 8.41957 | 11918 ft | 359 kts | 164° |
| 2026-05-07 19:44 | 50.14202 | 8.42305 | 11725 ft | 325 kts | 190° |
| 2026-05-07 19:44 | 50.12207 | 8.41117 | 11534 ft | 295 kts | 212° |
| 2026-05-07 19:44 | 50.10634 | 8.39248 | 11347 ft | 281 kts | 226° |
| 2026-05-07 19:44 | 50.09444 | 8.36867 | 11151 ft | 277 kts | 241° |
| 2026-05-07 19:45 | 50.08688 | 8.34114 | 11000 ft | 280 kts | 252° |
| 2026-05-07 19:45 | 50.08122 | 8.31252 | 10821 ft | 275 kts | 253° |
| 2026-05-07 19:45 | 50.07495 | 8.28435 | 10640 ft | 275 kts | 250° |
| 2026-05-07 19:45 | 50.06795 | 8.25661 | 10461 ft | 275 kts | 249° |
| 2026-05-07 19:46 | 50.06100 | 8.22888 | 10281 ft | 274 kts | 250° |
| 2026-05-07 19:46 | 50.05429 | 8.20116 | 10100 ft | 274 kts | 250° |
| 2026-05-07 19:46 | 50.04758 | 8.17338 | 9914 ft | 273 kts | 250° |
| 2026-05-07 19:46 | 50.04085 | 8.14581 | 9577 ft | 276 kts | 250° |
| 2026-05-07 19:47 | 50.03398 | 8.11778 | 8901 ft | 274 kts | 250° |
| 2026-05-07 19:47 | 50.02734 | 8.09067 | 8239 ft | 266 kts | 250° |
| 2026-05-07 19:47 | 50.02084 | 8.06397 | 7588 ft | 262 kts | 250° |
| 2026-05-07 19:47 | 50.01442 | 8.03758 | 6967 ft | 260 kts | 250° |
| 2026-05-07 19:48 | 50.00800 | 8.01135 | 6344 ft | 257 kts | 250° |
| 2026-05-07 19:48 | 50.00169 | 7.98557 | 5694 ft | 256 kts | 250° |
| 2026-05-07 19:48 | 49.99533 | 7.95963 | 5059 ft | 258 kts | 250° |
| 2026-05-07 19:48 | 49.98870 | 7.93344 | 4426 ft | 264 kts | 245° |
| 2026-05-07 19:49 | 49.97609 | 7.91350 | 4070 ft | 259 kts | 204° |
| 2026-05-07 19:49 | 49.95919 | 7.91012 | 4067 ft | 241 kts | 172° |
| 2026-05-07 19:49 | 49.94302 | 7.91565 | 4008 ft | 235 kts | 164° |
| 2026-05-07 19:49 | 49.92723 | 7.92257 | 4012 ft | 235 kts | 163° |
| 2026-05-07 19:50 | 49.91158 | 7.92961 | 4030 ft | 234 kts | 163° |
| 2026-05-07 19:50 | 49.89648 | 7.93887 | 3986 ft | 235 kts | 143° |
| 2026-05-07 19:50 | 49.88780 | 7.95940 | 3995 ft | 232 kts | 103° |
| 2026-05-07 19:50 | 49.88965 | 7.98355 | 3995 ft | 229 kts | 63° |
| 2026-05-07 19:51 | 49.89908 | 8.00342 | 4011 ft | 229 kts | 54° |
| 2026-05-07 19:51 | 49.90604 | 8.02523 | 4017 ft | 230 kts | 67° |
| 2026-05-07 19:51 | 49.91164 | 8.04852 | 4013 ft | 230 kts | 69° |
| 2026-05-07 19:51 | 49.91705 | 8.07125 | 4013 ft | 216 kts | 69° |
| 2026-05-07 19:52 | 49.92206 | 8.09228 | 4017 ft | 212 kts | 69° |
| 2026-05-07 19:52 | 49.92710 | 8.11342 | 4013 ft | 209 kts | 69° |
| 2026-05-07 19:52 | 49.93094 | 8.12952 | 4008 ft | 196 kts | 69° |
| 2026-05-07 19:52 | 49.93557 | 8.14895 | 4000 ft | 191 kts | 68° |
| 2026-05-07 19:53 | 49.94012 | 8.16806 | 3996 ft | 188 kts | 68° |
| 2026-05-07 19:53 | 49.94464 | 8.18702 | 3993 ft | 187 kts | 68° |
| 2026-05-07 19:53 | 49.94916 | 8.20596 | 4004 ft | 188 kts | 68° |
| 2026-05-07 19:53 | 49.95373 | 8.22481 | 3995 ft | 186 kts | 68° |
| 2026-05-07 19:54 | 49.95830 | 8.24392 | 4002 ft | 187 kts | 68° |
| 2026-05-07 19:54 | 49.96279 | 8.26277 | 3990 ft | 188 kts | 68° |
| 2026-05-07 19:54 | 49.96737 | 8.28197 | 3771 ft | 187 kts | 68° |
| 2026-05-07 19:54 | 49.97171 | 8.30021 | 3528 ft | 170 kts | 68° |
| 2026-05-07 19:55 | 49.97564 | 8.31651 | 3289 ft | 151 kts | 68° |
| 2026-05-07 19:55 | 49.97904 | 8.33073 | 3104 ft | 145 kts | 68° |
| 2026-05-07 19:55 | 49.98251 | 8.34526 | 2909 ft | 143 kts | 68° |
| 2026-05-07 19:55 | 49.98594 | 8.35965 | 2720 ft | 142 kts | 69° |
| 2026-05-07 19:56 | 49.98935 | 8.37395 | 2529 ft | 140 kts | 69° |
| 2026-05-07 19:56 | 49.99273 | 8.38814 | 2356 ft | 140 kts | 69° |
| 2026-05-07 19:56 | 49.99610 | 8.40227 | 2152 ft | 139 kts | 69° |
| 2026-05-07 19:56 | 49.99947 | 8.41639 | 1964 ft | 139 kts | 69° |
| 2026-05-07 19:57 | 50.00280 | 8.43035 | 1768 ft | 138 kts | 69° |
| 2026-05-07 19:57 | 50.00614 | 8.44422 | 1597 ft | 138 kts | 69° |
| 2026-05-07 19:57 | 50.00937 | 8.45828 | 1389 ft | 139 kts | 72° |
| 2026-05-07 19:57 | 50.01276 | 8.47216 | 1178 ft | 138 kts | 68° |
| 2026-05-07 19:58 | 50.01619 | 8.48603 | 1031 ft | 138 kts | 68° |
| 2026-05-07 19:58 | 50.01951 | 8.49990 | 845 ft | 137 kts | 70° |
| 2026-05-07 19:58 | 50.02272 | 8.51378 | 656 ft | 134 kts | 69° |
| 2026-05-07 19:58 | 50.02588 | 8.52739 | 469 ft | 135 kts | 69° |
| 2026-05-07 19:59 | 50.02914 | 8.54089 | 364 ft | 125 kts | 69° |
| 2026-05-07 19:59 | 50.03142 | 8.55040 | 364 ft | 64 kts | 70° |
| 2026-05-07 19:59 | 50.03239 | 8.55445 | 362 ft | 20 kts | 70° |
| 2026-05-07 19:59 | 50.03260 | 8.55531 | 364 ft | 10 kts | 69° |
| 2026-05-07 20:00 | 50.03297 | 8.55660 | 361 ft | 28 kts | 60° |
| 2026-05-07 20:00 | 50.03462 | 8.55892 | 362 ft | 34 kts | 39° |
| 2026-05-07 20:00 | 50.03624 | 8.56104 | 365 ft | 28 kts | 48° |
| 2026-05-07 20:00 | 50.03700 | 8.56366 | 360 ft | 26 kts | 71° |
| 2026-05-07 20:01 | 50.03764 | 8.56619 | 361 ft | 25 kts | 68° |
| 2026-05-07 20:01 | 50.03825 | 8.56862 | 362 ft | 24 kts | 69° |
| 2026-05-07 20:01 | 50.03883 | 8.57107 | 365 ft | 24 kts | 70° |
| 2026-05-07 20:01 | 50.03940 | 8.57347 | 362 ft | 24 kts | 69° |
| 2026-05-07 20:02 | 50.04000 | 8.57584 | 362 ft | 24 kts | 68° |
| 2026-05-07 20:02 | 50.04061 | 8.57822 | 360 ft | 23 kts | 70° |
| 2026-05-07 20:02 | 50.04112 | 8.58059 | 365 ft | 23 kts | 66° |
| 2026-05-07 20:02 | 50.04219 | 8.58191 | 362 ft | 13 kts | 19° |
| 2026-05-07 20:03 | 50.04265 | 8.58203 | 361 ft | 0 kts | 0° |
| 2026-05-07 20:03 | 50.04272 | 8.58202 | 360 ft | 6 kts | 356° |
| 2026-05-07 20:03 | 50.04366 | 8.58157 | 363 ft | 19 kts | 340° |
| 2026-05-07 20:03 | 50.04494 | 8.58084 | 362 ft | 20 kts | 339° |
| 2026-05-07 20:04 | 50.04534 | 8.58004 | 365 ft | 8 kts | 260° |
| 2026-05-07 20:04 | 50.04507 | 8.57871 | 360 ft | 18 kts | 249° |
| 2026-05-07 20:04 | 50.04464 | 8.57696 | 365 ft | 16 kts | 249° |
| 2026-05-07 20:04 | 50.04488 | 8.57575 | 365 ft | 10 kts | 328° |
| 2026-05-07 20:05 | 50.04552 | 8.57522 | 363 ft | 11 kts | 336° |
| 2026-05-07 20:05 | 50.04623 | 8.57468 | 363 ft | 11 kts | 323° |
| 2026-05-07 20:05 | 50.04683 | 8.57388 | 364 ft | 11 kts | 317° |
| 2026-05-07 20:05 | 50.04708 | 8.57333 | 362 ft | 5 kts | 286° |
| 2026-05-07 20:06 | 50.04710 | 8.57294 | 358 ft | 2 kts | 275° |
| 2026-05-07 20:06 | 50.04710 | 8.57290 | 357 ft | 0 kts | 275° |